Time;durP1;ratioP1;P1;durP2;ratioP2;P2;SDS_P1;SDS_P2;PMS_P1;PMS_P2;Temp;Humidity;BMP_temperature;BMP_pressure;BME280_temperature;BME280_humidity;BME280_pressure;Samples;Min_cycle;Max_cycle;Signal;HPM_P1;HPM_P2
2021/03/10 00:01:17;;;;;;;23.40;14.43;;;;;;;1.40;100.00;101812.31;5027644;28;20060;-62
2021/03/10 00:03:42;;;;;;;26.88;14.63;;;;;;;1.48;100.00;101813.84;5027299;28;20497;-62
2021/03/10 00:06:08;;;;;;;23.15;13.60;;;;;;;1.51;100.00;101817.22;5028140;28;20046;-62
2021/03/10 00:08:34;;;;;;;23.27;13.98;;;;;;;1.51;100.00;101824.34;5030496;28;20045;-62
2021/03/10 00:11:01;;;;;;;22.65;13.23;;;;;;;1.48;100.00;101832.41;5030762;28;20056;-62
2021/03/10 00:13:28;;;;;;;22.95;13.98;;;;;;;1.53;100.00;101838.41;5021698;28;20049;-61
2021/03/10 00:15:53;;;;;;;22.30;13.48;;;;;;;1.53;100.00;101843.72;5030627;28;20052;-63
2021/03/10 00:18:19;;;;;;;24.67;13.98;;;;;;;1.54;100.00;101840.16;5026647;28;20098;-63
2021/03/10 00:20:45;;;;;;;26.48;14.73;;;;;;;1.50;100.00;101843.81;5027524;28;20432;-63
2021/03/10 00:23:11;;;;;;;26.77;15.05;;;;;;;1.43;100.00;101847.59;5027842;28;20536;-62
2021/03/10 00:25:37;;;;;;;30.85;16.83;;;;;;;1.36;100.00;101831.91;5030576;28;20429;-63
2021/03/10 00:28:04;;;;;;;31.00;16.73;;;;;;;1.35;100.00;101826.66;5030015;28;20057;-62
2021/03/10 00:30:30;;;;;;;28.92;15.93;;;;;;;1.42;100.00;101824.66;5027535;28;20054;-62
2021/03/10 00:32:56;;;;;;;29.13;17.17;;;;;;;1.50;100.00;101826.13;5028585;28;20054;-62
2021/03/10 00:35:22;;;;;;;31.52;17.80;;;;;;;1.47;100.00;101822.69;5030926;28;20053;-62
2021/03/10 00:37:48;;;;;;;29.42;16.83;;;;;;;1.49;100.00;101826.19;5026394;28;20122;-63
2021/03/10 00:40:14;;;;;;;31.83;16.85;;;;;;;1.56;100.00;101830.34;5031188;28;20053;-62
2021/03/10 00:45:11;;;;;;;30.23;16.67;;;;;;;1.55;100.00;101839.22;5059434;22;20061;-64
2021/03/10 00:47:37;;;;;;;30.05;15.82;;;;;;;1.56;100.00;101838.28;5061362;28;20493;-62
2021/03/10 00:50:04;;;;;;;30.02;15.75;;;;;;;1.61;100.00;101839.00;5061396;28;20076;-64
2021/03/10 00:52:30;;;;;;;27.05;15.50;;;;;;;1.63;100.00;101845.13;5061361;28;20048;-64
2021/03/10 00:54:56;;;;;;;29.45;16.30;;;;;;;1.58;100.00;101847.09;5062190;28;20051;-63
2021/03/10 00:57:21;;;;;;;28.13;15.70;;;;;;;1.60;100.00;101845.22;5060171;28;20095;-62
2021/03/10 00:59:47;;;;;;;28.05;15.32;;;;;;;1.40;100.00;101843.28;5060991;28;20365;-63
2021/03/10 01:02:14;;;;;;;25.58;15.48;;;;;;;1.29;100.00;101833.03;5060204;28;20478;-62
2021/03/10 01:04:40;;;;;;;28.25;16.23;;;;;;;1.18;100.00;101827.25;5062076;28;20413;-63
2021/03/10 01:07:06;;;;;;;31.90;17.50;;;;;;;1.09;100.00;101820.47;5060475;28;20060;-62
2021/03/10 01:09:32;;;;;;;31.48;17.52;;;;;;;1.01;100.00;101822.50;5061617;28;20052;-62
2021/03/10 01:11:58;;;;;;;31.50;17.08;;;;;;;0.94;100.00;101818.31;5062020;28;20048;-64
2021/03/10 01:14:24;;;;;;;33.42;17.65;;;;;;;0.99;100.00;101829.63;5061184;28;20060;-62
2021/03/10 01:16:50;;;;;;;33.75;16.15;;;;;;;1.03;100.00;101825.94;5061094;28;20060;-62
2021/03/10 01:19:17;;;;;;;30.20;16.38;;;;;;;0.96;100.00;101822.66;5061357;28;20405;-62
2021/03/10 01:21:43;;;;;;;28.75;15.60;;;;;;;0.89;100.00;101817.59;5060833;28;20048;-62
2021/03/10 01:24:10;;;;;;;28.35;16.08;;;;;;;0.78;100.00;101810.88;5060856;28;20045;-62
2021/03/10 01:26:35;;;;;;;29.10;16.08;;;;;;;0.72;100.00;101823.44;5060971;28;20060;-62
2021/03/10 01:29:02;;;;;;;31.25;16.80;;;;;;;0.68;100.00;101814.72;5061128;28;20406;-63
2021/03/10 01:31:28;;;;;;;26.98;16.30;;;;;;;0.66;100.00;101814.78;5061707;28;20110;-62
2021/03/10 01:33:54;;;;;;;29.33;15.82;;;;;;;0.72;100.00;101818.13;5059819;28;20048;-62
2021/03/10 01:36:21;;;;;;;27.83;15.05;;;;;;;0.66;100.00;101813.88;5060320;28;20056;-62
2021/03/10 01:38:47;;;;;;;26.80;15.23;;;;;;;0.52;100.00;101820.50;5060748;28;20049;-63
2021/03/10 01:41:13;;;;;;;25.88;14.93;;;;;;;0.59;100.00;101815.88;5053538;28;20069;-63
2021/03/10 01:43:40;;;;;;;32.55;17.27;;;;;;;0.45;100.00;101803.06;5056618;28;20057;-63
2021/03/10 01:46:06;;;;;;;26.65;15.15;;;;;;;0.45;100.00;101810.16;5058588;28;20045;-62
2021/03/10 01:48:32;;;;;;;32.22;17.08;;;;;;;0.41;100.00;101804.06;5058586;28;20048;-62
2021/03/10 01:51:02;;;;;;;30.40;16.27;;;;;;;0.41;100.00;101803.19;5058637;28;20056;-63
2021/03/10 01:53:29;;;;;;;31.30;15.48;;;;;;;0.30;100.00;101799.09;5060220;28;20040;-62
2021/03/10 01:55:56;;;;;;;30.45;16.15;;;;;;;0.39;100.00;101800.59;5066285;28;20048;-62
2021/03/10 01:58:22;;;;;;;34.08;17.40;;;;;;;0.41;100.00;101804.06;5062807;28;20094;-62
2021/03/10 02:00:48;;;;;;;32.25;16.50;;;;;;;0.29;100.00;101804.44;5081156;28;20052;-63
2021/03/10 02:03:14;;;;;;;30.33;15.80;;;;;;;0.30;100.00;101806.19;5079661;28;20487;-62
2021/03/10 02:05:40;;;;;;;28.25;15.32;;;;;;;0.19;100.00;101803.00;5080601;28;20463;-62
2021/03/10 02:08:28;;;;;;;33.28;17.80;;;;;;;0.10;100.00;101804.13;5080002;28;20051;-62
2021/03/10 02:11:12;;;;;;;29.05;15.63;;;;;;;0.04;100.00;101801.66;5072072;28;20536;-62
2021/03/10 02:14:00;;;;;;;33.35;16.13;;;;;;;0.03;100.00;101799.94;5059572;28;20127;-64
2021/03/10 02:16:35;;;;;;;30.17;16.02;;;;;;;-0.01;100.00;101799.16;5067500;28;20110;-62
2021/03/10 02:19:04;;;;;;;29.58;15.63;;;;;;;0.04;100.00;101799.03;5059642;28;20547;-63
2021/03/10 02:21:41;;;;;;;29.38;16.25;;;;;;;0.10;100.00;101788.25;5058847;28;20460;-63
2021/03/10 02:24:20;;;;;;;31.98;17.50;;;;;;;0.04;100.00;101780.50;5059751;28;20053;-62
2021/03/10 02:27:15;;;;;;;36.33;17.48;;;;;;;0.07;100.00;101772.47;5060159;28;20139;-62
2021/03/10 02:29:43;;;;;;;32.47;17.00;;;;;;;0.08;100.00;101764.47;5064799;28;20087;-62
2021/03/10 02:32:11;;;;;;;34.40;18.10;;;;;;;0.08;100.00;101766.25;5066905;28;20072;-62
2021/03/10 02:34:38;;;;;;;34.08;16.75;;;;;;;0.15;100.00;101760.72;5063969;28;20048;-63
2021/03/10 02:37:07;;;;;;;32.95;16.92;;;;;;;0.24;100.00;101756.94;5062337;28;20056;-62
2021/03/10 02:39:34;;;;;;;30.95;17.42;;;;;;;0.33;100.00;101754.00;5066741;28;20041;-64
2021/03/10 02:42:00;;;;;;;34.40;19.13;;;;;;;0.50;100.00;101756.13;5066553;28;20052;-62
2021/03/10 02:44:27;;;;;;;33.78;19.73;;;;;;;0.51;100.00;101754.31;5066576;28;20045;-62
2021/03/10 02:46:54;;;;;;;40.70;20.48;;;;;;;0.54;100.00;101759.53;5062318;28;20059;-62
2021/03/10 02:49:21;;;;;;;40.35;19.67;;;;;;;0.63;100.00;101751.28;5057679;28;20461;-62
2021/03/10 02:51:48;;;;;;;35.08;17.67;;;;;;;0.66;100.00;101745.91;5068102;28;20515;-62
2021/03/10 02:54:16;;;;;;;37.65;17.95;;;;;;;0.85;100.00;101745.25;5060354;28;20063;-62
2021/03/10 02:56:42;;;;;;;33.05;17.75;;;;;;;0.78;100.00;101756.97;5065516;28;20052;-63
2021/03/10 02:59:09;;;;;;;32.03;18.17;;;;;;;0.73;100.00;101749.19;5065569;28;20044;-62
2021/03/10 03:01:35;;;;;;;33.85;18.63;;;;;;;0.79;100.00;101741.03;5057553;28;20493;-62
2021/03/10 03:04:02;;;;;;;34.42;18.02;;;;;;;0.86;100.00;101731.09;5067808;28;20060;-62
2021/03/10 03:06:28;;;;;;;39.33;19.30;;;;;;;0.93;100.00;101740.59;5070481;28;20056;-62
2021/03/10 03:08:54;;;;;;;36.97;17.65;;;;;;;0.96;100.00;101737.81;5079132;28;20055;-64
2021/03/10 03:11:20;;;;;;;34.25;17.50;;;;;;;1.00;100.00;101736.81;5078209;28;20416;-63
2021/03/10 03:13:46;;;;;;;32.50;17.30;;;;;;;0.99;100.00;101737.72;5079208;28;20060;-62
2021/03/10 03:16:13;;;;;;;34.97;18.13;;;;;;;1.03;100.00;101727.84;5078046;28;20043;-62
2021/03/10 03:18:39;;;;;;;34.47;17.60;;;;;;;1.07;100.00;101728.63;5058923;28;20053;-62
2021/03/10 03:21:06;;;;;;;30.33;16.90;;;;;;;1.14;100.00;101725.69;5064946;28;20064;-63
2021/03/10 03:23:32;;;;;;;38.92;19.23;;;;;;;1.14;100.00;101723.06;5058849;28;20501;-62
2021/03/10 03:25:59;;;;;;;31.58;17.15;;;;;;;1.17;100.00;101722.09;5066496;28;20637;-62
2021/03/10 03:28:27;;;;;;;32.10;17.75;;;;;;;1.21;100.00;101716.63;5056551;28;20102;-61
2021/03/10 03:30:54;;;;;;;30.48;16.02;;;;;;;1.20;100.00;101711.38;5057818;28;20060;-63
2021/03/10 03:33:22;;;;;;;31.05;17.27;;;;;;;1.21;100.00;101706.00;5059946;28;20060;-62
2021/03/10 03:35:52;;;;;;;30.17;17.38;;;;;;;1.21;100.00;101716.63;5078501;28;20132;-62
2021/03/10 03:38:20;;;;;;;32.30;17.58;;;;;;;1.27;100.00;101717.34;5078289;28;20202;-62
2021/03/10 03:40:48;;;;;;;33.45;18.05;;;;;;;1.31;100.00;101711.84;5078381;28;20060;-63
2021/03/10 03:43:15;;;;;;;34.30;18.60;;;;;;;1.28;100.00;101709.31;5079118;28;20047;-62
2021/03/10 03:45:41;;;;;;;32.55;16.80;;;;;;;1.32;100.00;101702.97;5078538;28;20051;-62
2021/03/10 03:48:08;;;;;;;33.28;17.83;;;;;;;1.32;100.00;101697.66;5077207;28;20052;-62
2021/03/10 03:50:34;;;;;;;34.03;17.83;;;;;;;1.33;100.00;101693.22;5079283;28;20044;-63
2021/03/10 03:53:00;;;;;;;33.60;17.98;;;;;;;1.38;100.00;101694.81;5078229;28;20505;-62
2021/03/10 03:55:27;;;;;;;34.88;18.55;;;;;;;1.39;100.00;101688.56;5077389;28;20051;-62
2021/03/10 03:57:53;;;;;;;34.75;17.88;;;;;;;1.50;100.00;101689.94;5076621;28;20052;-62
2021/03/10 04:00:23;;;;;;;36.35;18.63;;;;;;;1.50;100.00;101688.19;5076706;28;20185;-62
2021/03/10 04:02:49;;;;;;;37.33;18.73;;;;;;;1.49;100.00;101689.09;5078639;28;20086;-63
2021/03/10 04:05:16;;;;;;;32.35;18.38;;;;;;;1.50;100.00;101689.94;5077305;28;21038;-62
2021/03/10 04:07:49;;;;;;;35.75;18.88;;;;;;;1.52;100.00;101696.06;5080848;28;20048;-62
2021/03/10 04:10:15;;;;;;;33.25;17.67;;;;;;;1.49;100.00;101689.09;5081650;28;21029;-62
2021/03/10 04:12:42;;;;;;;34.90;18.38;;;;;;;1.43;100.00;101693.75;5082097;28;20052;-62
2021/03/10 04:15:10;;;;;;;32.22;17.70;;;;;;;1.34;100.00;101693.19;5082229;28;20060;-63
2021/03/10 04:17:36;;;;;;;32.85;17.55;;;;;;;1.32;100.00;101689.69;5082085;28;20048;-62
2021/03/10 04:20:04;;;;;;;35.15;17.95;;;;;;;1.32;100.00;101676.44;5082114;28;20549;-62
2021/03/10 04:25:46;;;;;;;35.20;17.63;;;;;;;1.18;100.00;101684.06;5069645;23;20098;-63
2021/03/10 04:28:13;;;;;;;34.47;17.63;;;;;;;1.17;100.00;101669.91;5058092;28;20078;-62
2021/03/10 04:30:39;;;;;;;33.75;18.00;;;;;;;1.11;100.00;101678.09;5060869;28;20071;-62
2021/03/10 04:33:05;;;;;;;33.10;18.17;;;;;;;1.06;100.00;101674.75;5059799;28;20057;-62
2021/03/10 04:35:31;;;;;;;36.95;18.27;;;;;;;1.02;100.00;101671.31;5060768;28;20056;-62
2021/03/10 04:37:57;;;;;;;38.40;19.80;;;;;;;0.99;100.00;101671.44;5059030;28;20497;-62
2021/03/10 04:40:23;;;;;;;36.85;18.55;;;;;;;1.01;100.00;101674.88;5059313;28;20466;-62
2021/03/10 04:42:50;;;;;;;40.00;19.75;;;;;;;1.03;100.00;101669.53;5060400;28;20057;-62
2021/03/10 04:45:17;;;;;;;34.60;19.23;;;;;;;1.02;100.00;101668.69;5058808;28;20099;-62
2021/03/10 04:47:44;;;;;;;38.72;18.92;;;;;;;1.01;100.00;101661.63;5060754;28;20071;-62
2021/03/10 04:50:12;;;;;;;39.97;20.08;;;;;;;1.11;100.00;101663.97;5060721;28;20098;-62
2021/03/10 04:52:38;;;;;;;38.67;19.85;;;;;;;1.16;100.00;101664.66;5060271;28;20110;-62
2021/03/10 04:55:06;;;;;;;34.13;18.35;;;;;;;1.11;100.00;101661.31;5060096;28;20048;-62
2021/03/10 04:57:33;;;;;;;39.88;18.33;;;;;;;1.11;100.00;101661.31;5058014;28;20160;-63
2021/03/10 05:02:28;;;;;;;38.77;20.57;;;;;;;1.12;100.00;101660.38;5088620;23;20503;-63
2021/03/10 05:04:54;;;;;;;41.42;21.17;;;;;;;1.14;100.00;101666.53;5079134;28;20103;-63
2021/03/10 05:07:20;;;;;;;37.88;19.48;;;;;;;1.11;100.00;101661.31;5098593;28;20408;-63
2021/03/10 05:09:46;;;;;;;37.95;19.05;;;;;;;1.11;100.00;101656.03;5101696;28;20613;-64
2021/03/10 05:12:12;;;;;;;42.78;20.27;;;;;;;1.11;100.00;101666.63;5099792;28;20072;-62
2021/03/10 05:14:38;;;;;;;38.67;20.42;;;;;;;1.11;100.00;101663.97;5100418;28;20067;-62
2021/03/10 05:17:04;;;;;;;38.33;19.83;;;;;;;1.13;100.00;101664.78;5100002;28;20112;-62
2021/03/10 05:19:31;;;;;;;40.55;20.02;;;;;;;1.12;100.00;101657.72;5100396;28;20071;-62
2021/03/10 05:21:56;;;;;;;52.08;25.33;;;;;;;1.42;100.00;101654.91;5100957;28;20063;-62
2021/03/10 05:24:22;;;;;;;47.30;23.40;;;;;;;1.43;100.00;101640.69;5098422;28;20097;-62
2021/03/10 05:26:49;;;;;;;46.53;24.63;;;;;;;1.66;100.00;101639.81;5100065;28;20054;-62
2021/03/10 05:29:14;;;;;;;56.35;26.08;;;;;;;1.80;100.00;101640.16;5098380;28;20056;-62
2021/03/10 05:31:40;;;;;;;50.78;26.40;;;;;;;2.03;100.00;101641.91;5100932;28;20052;-63
2021/03/10 05:34:07;;;;;;;48.78;24.40;;;;;;;2.14;100.00;101637.94;5099436;28;20076;-63
2021/03/10 05:36:34;;;;;;;46.08;23.70;;;;;;;2.18;100.00;101642.19;5099319;28;20059;-63
2021/03/10 05:39:00;;;;;;;41.30;22.27;;;;;;;2.41;100.00;101646.53;5099929;28;20052;-62
2021/03/10 05:41:26;;;;;;;41.38;21.70;;;;;;;2.50;100.00;101645.28;5099396;28;20119;-64
2021/03/10 05:43:52;;;;;;;36.88;21.10;;;;;;;2.49;100.00;101640.91;5098867;28;20476;-62
2021/03/10 05:46:18;;;;;;;41.75;20.30;;;;;;;2.48;100.00;101642.72;5099310;28;20043;-62
2021/03/10 05:48:44;;;;;;;34.97;19.55;;;;;;;2.43;100.00;101634.94;5099611;28;20091;-62
2021/03/10 05:51:10;;;;;;;40.95;22.25;;;;;;;2.52;100.00;101625.72;5099470;28;20048;-62
2021/03/10 05:53:41;;;;;;;36.08;19.70;;;;;;;2.62;100.00;101628.81;5100422;28;20488;-62
2021/03/10 05:56:08;;;;;;;37.78;20.42;;;;;;;2.69;100.00;101624.97;5099880;28;20138;-62
2021/03/10 05:58:34;;;;;;;37.03;19.52;;;;;;;2.74;100.00;101625.66;5099062;28;20067;-62
2021/03/10 06:01:00;;;;;;;34.00;18.85;;;;;;;2.78;100.00;101621.94;5099498;28;20043;-62
2021/03/10 06:03:26;;;;;;;36.65;18.55;;;;;;;2.88;100.00;101625.03;5100296;28;20059;-63
2021/03/10 06:05:59;;;;;;;33.42;19.45;;;;;;;2.89;100.00;101625.91;5099504;28;20047;-62
2021/03/10 06:08:27;;;;;;;35.63;19.00;;;;;;;2.89;100.00;101626.78;5099310;28;20089;-62
2021/03/10 06:10:54;;;;;;;37.03;19.33;;;;;;;2.86;100.00;101615.41;5100604;28;20048;-62
2021/03/10 06:13:22;;;;;;;36.63;21.85;;;;;;;2.98;100.00;101625.50;5098152;28;20492;-61
2021/03/10 06:15:49;;;;;;;37.67;20.65;;;;;;;2.95;100.00;101620.31;5099898;28;20051;-62
2021/03/10 06:18:23;;;;;;;44.63;23.67;;;;;;;2.96;100.00;101627.38;5099110;28;20063;-62
2021/03/10 06:20:49;;;;;;;42.88;22.92;;;;;;;3.03;100.00;101620.81;5098362;28;20096;-62
2021/03/10 06:23:16;;;;;;;41.33;22.67;;;;;;;3.06;100.00;101615.41;5098593;28;20093;-62
2021/03/10 06:25:42;;;;;;;49.58;24.05;;;;;;;3.03;100.00;101612.84;5098319;28;20047;-61
2021/03/10 06:28:10;;;;;;;47.70;24.10;;;;;;;3.02;100.00;101610.25;5096773;28;20048;-62
2021/03/10 06:30:39;;;;;;;42.50;22.73;;;;;;;3.02;100.00;101607.59;5099188;28;20043;-62
2021/03/10 06:33:06;;;;;;;45.47;24.05;;;;;;;3.00;100.00;101617.44;5100341;28;20043;-62
2021/03/10 06:35:33;;;;;;;45.30;24.50;;;;;;;3.04;100.00;101613.72;5098924;28;20406;-64
2021/03/10 06:38:07;;;;;;;49.50;26.77;;;;;;;3.01;100.00;101613.88;5099336;28;20058;-61
2021/03/10 06:40:33;;;;;;;54.45;27.65;;;;;;;3.00;100.00;101607.66;5097000;28;20394;-62
2021/03/10 06:43:00;;;;;;;52.83;27.85;;;;;;;3.00;100.00;101597.03;5101945;28;20054;-64
2021/03/10 06:45:32;;;;;;;58.58;29.23;;;;;;;3.05;100.00;101610.13;5097937;28;20036;-62
2021/03/10 06:47:58;;;;;;;53.95;28.58;;;;;;;3.08;100.00;101608.19;5099521;28;20066;-63
2021/03/10 06:50:34;;;;;;;57.50;29.02;;;;;;;3.05;100.00;101610.13;5099353;28;20056;-62
2021/03/10 06:53:00;;;;;;;60.35;30.85;;;;;;;3.10;100.00;101614.31;5099532;28;20476;-62
2021/03/10 06:55:36;;;;;;;64.25;30.50;;;;;;;3.14;100.00;101610.56;5099717;28;20063;-62
2021/03/10 06:58:02;;;;;;;59.13;30.13;;;;;;;3.14;100.00;101607.06;5096458;28;20512;-62
2021/03/10 07:00:29;;;;;;;62.97;31.55;;;;;;;3.19;100.00;101612.16;5097250;28;20048;-62
2021/03/10 07:02:57;;;;;;;54.72;28.17;;;;;;;3.17;100.00;101614.06;5098577;28;20077;-63
2021/03/10 07:05:24;;;;;;;59.50;30.27;;;;;;;3.12;100.00;101612.44;5097457;28;20060;-64
2021/03/10 07:07:50;;;;;;;66.70;33.25;;;;;;;3.15;100.00;101622.94;5099571;28;20052;-63
2021/03/10 07:10:17;;;;;;;62.03;30.23;;;;;;;3.17;100.00;101611.38;5097195;28;20052;-62
2021/03/10 07:12:44;;;;;;;63.00;30.77;;;;;;;3.20;100.00;101613.91;5097760;28;20054;-62
2021/03/10 07:15:10;;;;;;;60.22;29.73;;;;;;;3.21;100.00;101613.84;5097349;28;20059;-62
2021/03/10 07:17:38;;;;;;;58.17;29.83;;;;;;;3.25;100.00;101617.19;5097550;28;20052;-62
2021/03/10 07:20:05;;;;;;;59.75;29.23;;;;;;;3.26;100.00;101613.63;5096105;28;20078;-63
2021/03/10 07:22:34;;;;;;;66.35;32.85;;;;;;;3.28;100.00;101617.06;5097770;28;20051;-62
2021/03/10 07:25:04;;;;;;;64.28;30.67;;;;;;;3.28;100.00;101620.59;5100494;28;20161;-62
2021/03/10 07:27:37;;;;;;;59.05;31.35;;;;;;;3.30;100.00;101616.06;5098017;28;20500;-62
2021/03/10 07:30:05;;;;;;;57.03;30.38;;;;;;;3.36;100.00;101614.03;5099263;28;20454;-63
2021/03/10 07:32:31;;;;;;;61.67;31.15;;;;;;;3.34;100.00;101611.44;5089449;28;20043;-63
2021/03/10 07:35:03;;;;;;;64.03;32.42;;;;;;;3.36;100.00;101614.91;5099468;28;20048;-62
2021/03/10 07:37:29;;;;;;;62.55;31.15;;;;;;;3.37;100.00;101613.97;5099234;28;20490;-63
2021/03/10 07:40:08;;;;;;;67.32;31.90;;;;;;;3.40;100.00;101604.97;5099388;28;20063;-63
2021/03/10 07:42:35;;;;;;;64.57;32.72;;;;;;;3.41;100.00;101612.91;5097183;28;20098;-62
2021/03/10 07:45:01;;;;;;;62.28;33.08;;;;;;;3.42;100.00;101608.47;5097367;28;20043;-63
2021/03/10 07:47:27;;;;;;;67.95;36.50;;;;;;;3.42;100.00;101621.75;5093538;22;20428;-63
2021/03/10 07:49:58;;;;;;;73.93;37.38;;;;;;;3.44;100.00;101618.06;5078102;28;20056;-62
2021/03/10 07:52:27;;;;;;;75.90;36.08;;;;;;;3.45;100.00;101609.16;5078062;28;20084;-63
2021/03/10 07:54:57;;;;;;;72.90;33.65;;;;;;;3.53;100.00;101608.78;5079111;28;20048;-62
2021/03/10 07:57:23;;;;;;;67.75;35.88;;;;;;;3.59;100.00;101610.31;5077150;28;20055;-63
2021/03/10 07:59:53;;;;;;;63.55;32.03;;;;;;;3.62;100.00;101603.06;5078607;28;20405;-62
2021/03/10 08:02:20;;;;;;;66.88;33.65;;;;;;;3.66;100.00;101599.28;5077207;28;20516;-62
2021/03/10 08:04:53;;;;;;;63.47;33.10;;;;;;;3.66;100.00;101595.78;5078823;28;20416;-62
2021/03/10 08:07:21;;;;;;;67.25;36.13;;;;;;;3.70;100.00;101605.34;5078519;28;20124;-62
2021/03/10 08:09:50;;;;;;;65.00;34.40;;;;;;;3.70;100.00;101602.69;5079211;28;20044;-62
2021/03/10 08:12:19;;;;;;;71.72;34.50;;;;;;;3.73;100.00;101609.66;5078012;28;20044;-62
2021/03/10 08:14:46;;;;;;;66.38;33.15;;;;;;;3.78;100.00;101603.16;5079442;28;20067;-62
2021/03/10 08:17:20;;;;;;;67.13;34.10;;;;;;;3.81;100.00;101605.69;5078860;28;20052;-63
2021/03/10 08:19:50;;;;;;;71.82;33.20;;;;;;;3.90;100.00;101603.50;5078922;28;20044;-62
2021/03/10 08:22:17;;;;;;;61.97;31.98;;;;;;;3.86;100.00;101600.16;5078619;28;20056;-62
2021/03/10 08:24:43;;;;;;;66.97;33.90;;;;;;;3.90;100.00;101601.75;5078098;28;20059;-62
2021/03/10 08:27:10;;;;;;;67.18;34.53;;;;;;;3.98;100.00;101602.22;5078828;28;20084;-62
2021/03/10 08:29:46;;;;;;;71.28;34.22;;;;;;;3.95;100.00;101598.84;5078706;28;20094;-62
2021/03/10 08:32:22;;;;;;;68.28;34.72;;;;;;;4.03;100.00;101591.31;5078863;28;20482;-61
2021/03/10 08:34:48;;;;;;;67.25;34.10;;;;;;;4.15;100.00;101598.72;5079286;28;20048;-62
2021/03/10 08:37:15;;;;;;;70.28;37.22;;;;;;;4.14;100.00;101588.16;5078186;28;20366;-63
2021/03/10 08:39:41;;;;;;;62.45;33.08;;;;;;;4.21;100.00;101587.75;5079095;28;20056;-63
2021/03/10 08:42:07;;;;;;;62.45;33.63;;;;;;;4.24;100.00;101585.84;5071983;28;20164;-63
2021/03/10 08:44:40;;;;;;;68.75;34.35;;;;;;;4.28;100.00;101585.63;5076596;28;20064;-61
2021/03/10 08:47:12;;;;;;;69.05;39.50;;;;;;;4.34;100.00;101592.44;5078278;28;20413;-62
2021/03/10 08:49:38;;;;;;;65.45;33.58;;;;;;;4.36;100.00;101575.44;5077604;28;20145;-62
2021/03/10 08:52:06;;;;;;;63.80;34.88;;;;;;;4.42;100.00;101578.72;5080264;28;20072;-61
2021/03/10 08:54:33;;;;;;;67.83;34.77;;;;;;;4.52;100.00;101585.31;5082930;28;20056;-62
2021/03/10 08:56:59;;;;;;;67.20;35.22;;;;;;;4.58;100.00;101574.34;5082741;28;20044;-63
2021/03/10 08:59:34;;;;;;;61.10;32.13;;;;;;;4.63;100.00;101574.09;5082008;28;20389;-64
2021/03/10 09:02:02;;;;;;;63.72;34.13;;;;;;;4.68;100.00;101572.03;5082934;28;20082;-62
2021/03/10 09:04:28;;;;;;;65.53;33.95;;;;;;;4.70;100.00;101572.84;5081583;28;20048;-62
2021/03/10 09:06:56;;;;;;;64.18;34.92;;;;;;;4.74;100.00;101569.06;5081986;28;20059;-62
2021/03/10 09:09:23;;;;;;;63.08;33.40;;;;;;;4.80;100.00;101552.75;5081222;28;20087;-62
2021/03/10 09:11:50;;;;;;;57.47;32.42;;;;;;;4.83;100.00;101557.03;5081933;28;20135;-62
2021/03/10 09:14:16;;;;;;;58.20;33.17;;;;;;;4.86;100.00;101547.09;5081475;28;20051;-62
2021/03/10 09:16:56;;;;;;;61.78;31.70;;;;;;;4.90;100.00;101553.97;5082827;28;20487;-62
2021/03/10 09:19:35;;;;;;;61.28;35.67;;;;;;;4.98;100.00;101545.56;5082124;28;20052;-63
2021/03/10 09:22:12;;;;;;;57.42;31.27;;;;;;;5.04;100.00;101542.56;5083065;28;20579;-62
2021/03/10 09:24:54;;;;;;;63.45;32.83;;;;;;;5.03;100.00;101547.97;5081926;28;20067;-63
2021/03/10 09:27:26;;;;;;;53.97;30.23;;;;;;;5.09;100.00;101544.97;5081433;28;20071;-62
2021/03/10 09:29:53;;;;;;;55.50;31.63;;;;;;;5.14;100.00;101540.25;5081329;28;20053;-61
2021/03/10 09:32:20;;;;;;;59.20;30.63;;;;;;;5.17;100.00;101542.75;5080729;28;20839;-63
2021/03/10 09:34:48;;;;;;;58.28;31.02;;;;;;;5.26;100.00;101544.06;5081919;28;20362;-62
2021/03/10 09:37:14;;;;;;;59.25;32.30;;;;;;;5.30;100.00;101532.25;5080556;28;20055;-62
2021/03/10 09:39:45;;;;;;;54.28;30.55;;;;;;;5.37;100.00;101530.09;5053012;22;20202;-63
2021/03/10 09:42:11;;;;;;;54.03;30.30;;;;;;;5.32;100.00;101532.19;5060248;28;20159;-62
2021/03/10 09:44:41;;;;;;;54.20;30.73;;;;;;;5.38;100.00;101529.16;5061904;28;20057;-64
2021/03/10 09:47:13;;;;;;;52.63;30.05;;;;;;;5.46;100.00;101518.88;5060540;28;20053;-63
2021/03/10 09:49:45;;;;;;;56.55;29.25;;;;;;;5.59;100.00;101517.28;5062081;28;20053;-62
2021/03/10 09:52:12;;;;;;;50.90;31.27;;;;;;;5.61;100.00;101520.72;5060320;28;20052;-63
2021/03/10 09:54:52;;;;;;;53.08;31.48;;;;;;;5.71;100.00;101506.81;5061376;28;20048;-63
2021/03/10 09:57:28;;;;;;;52.60;29.80;;;;;;;5.72;100.00;101509.41;5059209;28;20048;-62
2021/03/10 09:59:55;;;;;;;50.85;29.90;;;;;;;5.78;100.00;101505.50;5061637;28;20511;-62
2021/03/10 10:02:22;;;;;;;51.30;29.83;;;;;;;5.74;100.00;101503.97;5060182;28;20441;-62
2021/03/10 10:05:02;;;;;;;53.83;30.15;;;;;;;5.69;100.00;101506.06;5060341;28;20045;-62
2021/03/10 10:07:30;;;;;;;47.08;28.63;;;;;;;5.72;100.00;101504.06;5059439;28;20082;-63
2021/03/10 10:09:57;;;;;;;53.25;28.33;;;;;;;5.77;100.00;101507.34;5061229;28;20056;-63
2021/03/10 10:12:24;;;;;;;55.38;30.23;;;;;;;5.83;100.00;101495.44;5059916;28;20048;-62
2021/03/10 10:14:50;;;;;;;50.35;29.13;;;;;;;5.73;100.00;101497.78;5060914;28;20136;-62
2021/03/10 10:17:17;;;;;;;49.10;29.92;;;;;;;5.70;100.00;101502.44;5060647;28;20052;-63
2021/03/10 10:19:43;;;;;;;52.67;30.90;;;;;;;5.74;100.00;101498.63;5060849;28;20094;-62
2021/03/10 10:22:10;;;;;;;51.35;30.40;;;;;;;5.82;100.00;101512.41;5060915;28;20088;-63
2021/03/10 10:24:37;;;;;;;48.15;28.05;;;;;;;5.82;100.00;101503.53;5061033;28;20056;-62
2021/03/10 10:27:03;;;;;;;56.35;32.97;;;;;;;5.90;100.00;101507.50;5060159;28;20094;-63
2021/03/10 10:29:29;;;;;;;51.22;30.20;;;;;;;5.99;100.00;101505.25;5060886;28;20045;-62
2021/03/10 10:31:55;;;;;;;52.92;30.48;;;;;;;6.02;100.00;101502.38;5060117;28;20048;-62
2021/03/10 10:34:21;;;;;;;55.13;31.23;;;;;;;6.08;100.00;101494.00;5060220;28;20056;-63
2021/03/10 10:36:47;;;;;;;49.13;30.60;;;;;;;6.11;100.00;101504.50;5059854;28;20114;-62
2021/03/10 10:41:42;;;;;;;49.17;30.17;;;;;;;6.11;100.00;101499.16;5097192;22;20120;-62
2021/03/10 10:44:08;;;;;;;51.13;28.30;;;;;;;6.15;100.00;101490.00;5059949;28;20040;-62
2021/03/10 10:46:34;;;;;;;50.80;29.80;;;;;;;6.23;100.00;101498.44;5060439;28;20194;-63
2021/03/10 10:49:00;;;;;;;50.08;29.23;;;;;;;6.31;100.00;101495.28;5057232;28;20071;-62
2021/03/10 10:51:28;;;;;;;49.65;29.60;;;;;;;6.26;100.00;101492.06;5059059;28;20084;-62
2021/03/10 10:53:54;;;;;;;44.45;26.15;;;;;;;6.35;100.00;101504.00;5056923;28;20049;-63
2021/03/10 10:56:20;;;;;;;43.97;26.92;;;;;;;6.31;100.00;101493.47;5057624;28;20056;-62
2021/03/10 10:58:47;;;;;;;49.55;27.30;;;;;;;6.38;100.00;101495.81;5057590;28;20505;-62
2021/03/10 11:01:13;;;;;;;45.63;27.50;;;;;;;6.44;100.00;101490.06;5056557;28;20057;-61
2021/03/10 11:03:39;;;;;;;42.35;26.20;;;;;;;6.41;100.00;101487.59;5058467;28;20103;-62
2021/03/10 11:06:05;;;;;;;41.00;25.08;;;;;;;6.44;100.00;101484.72;5055950;28;20069;-62
2021/03/10 11:08:31;;;;;;;40.75;26.27;;;;;;;6.48;100.00;101480.91;5060062;28;20414;-62
2021/03/10 11:10:57;;;;;;;41.38;25.77;;;;;;;6.54;100.00;101467.16;5059334;28;20064;-63
2021/03/10 11:13:23;;;;;;;41.58;25.85;;;;;;;6.61;100.00;101457.81;5059299;28;20064;-62
2021/03/10 11:15:49;;;;;;;42.20;25.25;;;;;;;6.63;100.00;101463.06;5056578;28;20095;-62
2021/03/10 11:18:15;;;;;;;42.97;25.20;;;;;;;6.62;100.00;101450.63;5056999;28;20041;-63
2021/03/10 11:20:41;;;;;;;38.00;24.27;;;;;;;6.65;100.00;101451.31;5058766;28;20152;-62
2021/03/10 11:23:07;;;;;;;42.47;24.75;;;;;;;6.68;100.00;101460.09;5055288;28;20131;-63